Time;durP1;ratioP1;P1;durP2;ratioP2;P2;SDS_P1;SDS_P2;PMS_P1;PMS_P2;Temp;Humidity;BMP_temperature;BMP_pressure;BME280_temperature;BME280_humidity;BME280_pressure;Samples;Min_cycle;Max_cycle;Signal;HPM_P1;HPM_P2
2023/09/01 00:01:39;;;;;;;6.88;2.05;;;;;;;;;;5283953;28;20449;-73
2023/09/01 00:04:11;;;;;;;7.55;2.30;;;;;;;;;;5283577;28;20047;-73
2023/09/01 00:06:42;;;;;;;6.65;2.22;;;;;;;;;;5283563;28;20048;-73
2023/09/01 00:09:13;;;;;;;4.43;1.80;;;;;;;;;;5284583;28;20074;-73
2023/09/01 00:11:44;;;;;;;6.87;2.00;;;;;;;;;;5282954;28;20052;-73
2023/09/01 00:14:16;;;;;;;6.88;2.00;;;;;;;;;;5284130;28;20310;-74
2023/09/01 00:16:47;;;;;;;5.65;1.95;;;;;;;;;;5283407;28;20115;-73
2023/09/01 00:19:20;;;;;;;6.55;2.00;;;;;;;;;;5283366;28;20452;-73
2023/09/01 00:21:52;;;;;;;5.45;1.65;;;;;;;;;;5283771;28;20023;-73
2023/09/01 00:24:25;;;;;;;7.45;1.92;;;;;;;;;;5283937;28;20103;-73
2023/09/01 00:26:56;;;;;;;5.85;1.75;;;;;;;;;;5282853;28;20103;-73
2023/09/01 00:29:27;;;;;;;6.68;1.50;;;;;;;;;;5283911;28;20427;-73
2023/09/01 00:32:01;;;;;;;9.60;1.63;;;;;;;;;;5283712;28;20097;-73
2023/09/01 00:34:34;;;;;;;4.78;1.67;;;;;;;;;;5282633;28;20788;-74
2023/09/01 00:37:05;;;;;;;6.22;1.73;;;;;;;;;;5284103;28;20027;-73
2023/09/01 00:39:36;;;;;;;8.10;1.85;;;;;;;;;;5282297;28;20028;-74
2023/09/01 00:42:07;;;;;;;5.25;1.58;;;;;;;;;;5284029;28;20016;-73
2023/09/01 00:44:38;;;;;;;6.47;1.55;;;;;;;;;;5283298;28;20051;-73
2023/09/01 00:47:11;;;;;;;4.75;1.50;;;;;;;;;;5282948;28;20020;-73
2023/09/01 00:49:42;;;;;;;4.75;1.45;;;;;;;;;;5282685;28;20089;-73
2023/09/01 00:52:13;;;;;;;5.72;1.75;;;;;;;;;;5283392;28;20070;-73
2023/09/01 00:54:45;;;;;;;6.07;1.40;;;;;;;;;;5282192;28;20105;-73
2023/09/01 00:57:16;;;;;;;7.32;1.60;;;;;;;;;;5283485;28;20017;-73
2023/09/01 00:59:47;;;;;;;5.13;1.30;;;;;;;;;;5282838;28;20019;-73
2023/09/01 01:02:18;;;;;;;6.43;1.75;;;;;;;;;;5282408;28;20103;-73
2023/09/01 01:04:50;;;;;;;5.50;1.63;;;;;;;;;;5282578;28;20036;-73
2023/09/01 01:07:32;;;;;;;4.25;1.65;;;;;;;;;;5282301;28;20483;-73
2023/09/01 01:10:03;;;;;;;6.72;1.70;;;;;;;;;;5283254;28;20028;-73
2023/09/01 01:12:42;;;;;;;5.07;1.60;;;;;;;;;;5282568;28;20020;-73
2023/09/01 01:15:14;;;;;;;4.80;1.20;;;;;;;;;;5281989;28;20590;-73
2023/09/01 01:17:46;;;;;;;5.38;1.80;;;;;;;;;;5282352;28;20099;-73
2023/09/01 01:20:24;;;;;;;4.70;1.55;;;;;;;;;;5283017;28;20471;-73
2023/09/01 01:23:09;;;;;;;4.25;1.73;;;;;;;;;;5281835;28;20047;-73
2023/09/01 01:25:44;;;;;;;4.97;1.25;;;;;;;;;;5282207;28;20019;-73
2023/09/01 01:28:16;;;;;;;4.25;1.40;;;;;;;;;;5282923;28;20024;-73
2023/09/01 01:30:47;;;;;;;4.15;1.55;;;;;;;;;;5281305;28;20021;-73
2023/09/01 01:33:27;;;;;;;5.60;1.73;;;;;;;;;;5282536;28;20071;-73
2023/09/01 01:36:04;;;;;;;5.75;1.50;;;;;;;;;;5281888;28;20413;-73
2023/09/01 01:38:36;;;;;;;5.63;1.20;;;;;;;;;;5281974;28;20073;-73
2023/09/01 01:41:10;;;;;;;4.55;1.30;;;;;;;;;;5282638;28;20436;-73
2023/09/01 01:43:42;;;;;;;4.65;1.50;;;;;;;;;;5281151;28;20020;-72
2023/09/01 01:46:13;;;;;;;4.85;1.48;;;;;;;;;;5282411;28;20020;-72
2023/09/01 01:48:44;;;;;;;4.25;1.17;;;;;;;;;;5281808;28;20463;-73
2023/09/01 01:51:16;;;;;;;4.57;1.50;;;;;;;;;;5281683;28;20025;-73
2023/09/01 01:53:47;;;;;;;4.47;1.58;;;;;;;;;;5281735;28;20107;-73
2023/09/01 01:56:18;;;;;;;5.88;1.45;;;;;;;;;;5282824;28;20452;-73
2023/09/01 01:58:50;;;;;;;5.00;1.60;;;;;;;;;;5280776;28;20103;-73
2023/09/01 02:01:22;;;;;;;3.95;1.50;;;;;;;;;;5281929;28;20158;-72
2023/09/01 02:03:53;;;;;;;5.15;1.73;;;;;;;;;;5281047;28;20499;-73
2023/09/01 02:06:24;;;;;;;4.68;1.85;;;;;;;;;;5281853;28;20063;-74
2023/09/01 02:08:55;;;;;;;5.40;1.75;;;;;;;;;;5281787;28;20077;-72
2023/09/01 02:11:27;;;;;;;6.03;1.97;;;;;;;;;;5281260;28;20016;-73
2023/09/01 02:13:58;;;;;;;5.53;1.52;;;;;;;;;;5281659;28;20388;-73
2023/09/01 02:16:29;;;;;;;7.68;2.20;;;;;;;;;;5281640;28;20383;-73
2023/09/01 02:19:00;;;;;;;4.80;1.77;;;;;;;;;;5281133;28;20024;-73
2023/09/01 02:21:32;;;;;;;5.00;1.92;;;;;;;;;;5281377;28;20013;-73
2023/09/01 02:24:05;;;;;;;5.10;2.15;;;;;;;;;;5281946;28;20030;-72
2023/09/01 02:26:36;;;;;;;5.32;2.47;;;;;;;;;;5280953;28;20085;-72
2023/09/01 02:29:07;;;;;;;6.43;1.70;;;;;;;;;;5282020;28;20021;-72
2023/09/01 02:31:39;;;;;;;3.38;1.63;;;;;;;;;;5281410;28;20367;-72
2023/09/01 02:34:10;;;;;;;6.93;1.73;;;;;;;;;;5281068;28;20024;-72
2023/09/01 02:36:41;;;;;;;8.32;2.35;;;;;;;;;;5281414;28;20070;-73
2023/09/01 02:39:13;;;;;;;5.60;1.92;;;;;;;;;;5281108;28;20017;-73
2023/09/01 02:41:44;;;;;;;4.68;1.55;;;;;;;;;;5281289;28;20467;-73
2023/09/01 02:44:16;;;;;;;5.90;2.00;;;;;;;;;;5281739;28;20012;-73
2023/09/01 02:46:47;;;;;;;4.32;1.83;;;;;;;;;;5280303;28;20021;-73
2023/09/01 02:49:18;;;;;;;6.40;2.20;;;;;;;;;;5281665;28;20100;-73
2023/09/01 02:51:49;;;;;;;4.78;1.75;;;;;;;;;;5281283;28;20035;-73
2023/09/01 02:54:20;;;;;;;4.75;2.03;;;;;;;;;;5280994;28;20035;-73
2023/09/01 02:56:52;;;;;;;5.57;1.63;;;;;;;;;;5281096;28;20016;-73
2023/09/01 02:59:23;;;;;;;4.18;1.60;;;;;;;;;;5281570;28;20059;-73
2023/09/01 03:01:54;;;;;;;5.32;1.75;;;;;;;;;;5280635;28;20452;-73
2023/09/01 03:04:25;;;;;;;7.82;1.77;;;;;;;;;;5281225;28;20020;-74
2023/09/01 03:06:57;;;;;;;5.50;2.03;;;;;;;;;;5280296;28;20491;-74
2023/09/01 03:09:28;;;;;;;8.30;2.15;;;;;;;;;;5281249;28;20017;-73
2023/09/01 03:11:59;;;;;;;5.15;1.70;;;;;;;;;;5281805;28;20116;-73
2023/09/01 03:14:30;;;;;;;5.00;1.90;;;;;;;;;;5284173;28;20031;-73
2023/09/01 03:17:04;;;;;;;3.85;1.83;;;;;;;;;;5285272;28;20258;-73
2023/09/01 03:19:36;;;;;;;4.38;1.63;;;;;;;;;;5284752;28;20035;-73
2023/09/01 03:22:07;;;;;;;5.70;2.33;;;;;;;;;;5284567;28;20345;-73
2023/09/01 03:24:38;;;;;;;6.90;1.55;;;;;;;;;;5284668;28;20020;-73
2023/09/01 03:27:09;;;;;;;5.28;1.88;;;;;;;;;;5285385;28;20039;-73
2023/09/01 03:29:42;;;;;;;7.38;1.90;;;;;;;;;;5283897;28;20020;-73
2023/09/01 03:32:14;;;;;;;6.22;2.42;;;;;;;;;;5285040;28;20036;-73
2023/09/01 03:34:45;;;;;;;6.25;2.05;;;;;;;;;;5284376;28;20048;-73
2023/09/01 03:37:17;;;;;;;5.60;2.08;;;;;;;;;;5284437;28;20470;-73
2023/09/01 03:39:48;;;;;;;5.03;1.83;;;;;;;;;;5284246;28;20307;-73
2023/09/01 03:42:19;;;;;;;5.25;2.22;;;;;;;;;;5284202;28;20455;-73
2023/09/01 03:44:50;;;;;;;4.43;1.95;;;;;;;;;;5284195;28;20528;-73
2023/09/01 03:47:22;;;;;;;4.95;2.00;;;;;;;;;;5285206;28;20021;-73
2023/09/01 03:49:53;;;;;;;5.78;1.95;;;;;;;;;;5283341;28;20431;-73
2023/09/01 03:52:24;;;;;;;5.22;2.20;;;;;;;;;;5284580;28;20348;-74
2023/09/01 03:54:55;;;;;;;4.53;2.10;;;;;;;;;;5284537;28;20031;-73
2023/09/01 03:57:27;;;;;;;6.78;2.47;;;;;;;;;;5283613;28;20020;-73
2023/09/01 03:59:58;;;;;;;3.47;1.77;;;;;;;;;;5284496;28;20100;-73
2023/09/01 04:02:29;;;;;;;4.63;2.00;;;;;;;;;;5284208;28;20031;-73
2023/09/01 04:05:01;;;;;;;5.68;2.40;;;;;;;;;;5283578;28;20119;-73
2023/09/01 04:07:32;;;;;;;5.40;2.45;;;;;;;;;;5283711;28;20102;-73
2023/09/01 04:10:04;;;;;;;3.70;1.95;;;;;;;;;;5284441;28;20108;-73
2023/09/01 04:12:35;;;;;;;7.15;2.40;;;;;;;;;;5283146;28;20056;-73
2023/09/01 04:15:07;;;;;;;4.97;2.17;;;;;;;;;;5284489;28;20020;-73
2023/09/01 04:17:38;;;;;;;5.22;2.58;;;;;;;;;;5283002;28;20021;-73
2023/09/01 04:20:10;;;;;;;6.70;2.53;;;;;;;;;;5284210;28;20021;-73
2023/09/01 04:22:41;;;;;;;6.40;2.35;;;;;;;;;;5283493;28;20020;-73
2023/09/01 04:25:12;;;;;;;4.97;2.38;;;;;;;;;;5282873;28;20379;-73
2023/09/01 04:27:43;;;;;;;6.18;2.35;;;;;;;;;;5283493;28;20020;-73
2023/09/01 04:30:14;;;;;;;2.83;1.60;;;;;;;;;;5284161;28;20028;-73
2023/09/01 04:32:46;;;;;;;5.47;2.17;;;;;;;;;;5282375;28;20325;-73
2023/09/01 04:35:18;;;;;;;6.78;2.28;;;;;;;;;;5284141;28;20016;-73
2023/09/01 04:37:49;;;;;;;4.20;1.77;;;;;;;;;;5283160;28;20558;-73
2023/09/01 04:40:20;;;;;;;6.20;2.35;;;;;;;;;;5283102;28;20493;-73
2023/09/01 04:42:51;;;;;;;5.35;2.13;;;;;;;;;;5283119;28;20024;-73
2023/09/01 04:45:22;;;;;;;4.38;1.83;;;;;;;;;;5282840;28;20013;-73
2023/09/01 04:47:54;;;;;;;5.50;1.80;;;;;;;;;;5283199;28;20059;-73
2023/09/01 04:50:25;;;;;;;4.85;2.15;;;;;;;;;;5283018;28;20025;-73
2023/09/01 04:52:56;;;;;;;4.10;1.80;;;;;;;;;;5282167;28;20440;-72
2023/09/01 04:55:27;;;;;;;5.18;2.00;;;;;;;;;;5283091;28;20016;-72
2023/09/01 04:57:59;;;;;;;4.35;2.00;;;;;;;;;;5282935;28;20020;-72
2023/09/01 05:00:30;;;;;;;4.28;2.50;;;;;;;;;;5282255;28;20017;-72
2023/09/01 05:03:01;;;;;;;5.90;2.60;;;;;;;;;;5283364;28;20096;-73
2023/09/01 05:05:32;;;;;;;6.65;2.55;;;;;;;;;;5282604;28;20086;-73
2023/09/01 05:08:04;;;;;;;6.25;2.42;;;;;;;;;;5282192;28;20058;-73
2023/09/01 05:10:35;;;;;;;4.10;2.58;;;;;;;;;;5282611;28;20024;-72
2023/09/01 05:13:06;;;;;;;3.92;2.15;;;;;;;;;;5282803;28;20032;-72
2023/09/01 05:15:37;;;;;;;4.57;2.10;;;;;;;;;;5281466;28;20444;-73
2023/09/01 05:18:08;;;;;;;8.07;2.25;;;;;;;;;;5282862;28;20282;-72
2023/09/01 05:20:40;;;;;;;5.68;4.22;;;;;;;;;;5281399;28;20016;-73
2023/09/01 05:23:11;;;;;;;4.57;2.83;;;;;;;;;;5282910;28;20017;-73
2023/09/01 05:25:42;;;;;;;4.88;2.53;;;;;;;;;;5282203;28;20829;-73
2023/09/01 05:28:13;;;;;;;4.68;2.40;;;;;;;;;;5281999;28;20043;-73
2023/09/01 05:30:44;;;;;;;5.90;2.00;;;;;;;;;;5282013;28;20103;-73
2023/09/01 05:33:15;;;;;;;4.85;1.95;;;;;;;;;;5282373;28;20040;-73
2023/09/01 05:35:47;;;;;;;4.15;2.30;;;;;;;;;;5280418;28;20013;-73
2023/09/01 05:38:19;;;;;;;5.40;2.25;;;;;;;;;;5282560;28;20029;-73
2023/09/01 05:40:57;;;;;;;3.95;2.10;;;;;;;;;;5281786;28;20040;-73
2023/09/01 05:43:29;;;;;;;5.00;2.20;;;;;;;;;;5281300;28;20490;-73
2023/09/01 05:46:00;;;;;;;7.60;2.80;;;;;;;;;;5282592;28;20019;-73
2023/09/01 05:48:31;;;;;;;3.50;2.50;;;;;;;;;;5281678;28;20115;-74
2023/09/01 05:51:03;;;;;;;6.53;3.00;;;;;;;;;;5281537;28;20262;-73
2023/09/01 05:53:34;;;;;;;5.15;3.00;;;;;;;;;;5281346;28;20063;-72
2023/09/01 05:56:05;;;;;;;3.78;2.38;;;;;;;;;;5281288;28;20054;-73
2023/09/01 05:58:36;;;;;;;5.47;2.88;;;;;;;;;;5281620;28;20028;-72
2023/09/01 06:01:07;;;;;;;7.03;2.85;;;;;;;;;;5282321;28;20048;-73
2023/09/01 06:03:39;;;;;;;7.00;3.47;;;;;;;;;;5280842;28;20104;-74
2023/09/01 06:06:10;;;;;;;3.88;3.30;;;;;;;;;;5282089;28;20107;-74
2023/09/01 06:08:41;;;;;;;4.32;2.88;;;;;;;;;;5281198;28;20083;-76
2023/09/01 06:11:15;;;;;;;5.93;3.78;;;;;;;;;;5281519;28;20050;-75
2023/09/01 06:13:46;;;;;;;7.72;3.80;;;;;;;;;;5281415;28;20082;-74
2023/09/01 06:16:17;;;;;;;7.32;3.83;;;;;;;;;;5282195;28;20017;-74
2023/09/01 06:18:49;;;;;;;7.90;3.60;;;;;;;;;;5280754;28;20398;-74
2023/09/01 06:21:21;;;;;;;7.25;3.92;;;;;;;;;;5281973;28;20028;-74
2023/09/01 06:23:52;;;;;;;5.78;4.20;;;;;;;;;;5280766;28;20360;-74
2023/09/01 06:26:23;;;;;;;9.20;4.22;;;;;;;;;;5281674;28;20020;-74
2023/09/01 06:28:54;;;;;;;6.50;3.50;;;;;;;;;;5281044;28;20027;-73
2023/09/01 06:31:25;;;;;;;6.70;4.32;;;;;;;;;;5280527;28;20255;-74
2023/09/01 06:33:57;;;;;;;11.07;4.10;;;;;;;;;;5281360;28;20529;-74
2023/09/01 06:36:28;;;;;;;6.20;4.03;;;;;;;;;;5281551;28;20052;-74
2023/09/01 06:38:59;;;;;;;7.38;4.30;;;;;;;;;;5280646;28;20167;-77
2023/09/01 06:41:31;;;;;;;7.40;4.47;;;;;;;;;;5281182;28;20353;-74
2023/09/01 06:44:02;;;;;;;6.95;4.57;;;;;;;;;;5281757;28;20388;-73
2023/09/01 06:46:34;;;;;;;5.93;4.45;;;;;;;;;;5280500;28;20016;-73
2023/09/01 06:49:05;;;;;;;8.20;4.30;;;;;;;;;;5285781;28;20017;-73
2023/09/01 06:51:36;;;;;;;6.55;4.78;;;;;;;;;;5285278;28;20020;-73
2023/09/01 06:54:07;;;;;;;7.18;4.75;;;;;;;;;;5285139;28;20036;-73
2023/09/01 06:56:38;;;;;;;7.10;4.95;;;;;;;;;;5285004;28;20056;-72
2023/09/01 06:59:10;;;;;;;10.13;5.38;;;;;;;;;;5285175;28;20077;-72
2023/09/01 07:01:41;;;;;;;8.70;5.70;;;;;;;;;;5285302;28;20081;-73
2023/09/01 07:04:12;;;;;;;7.27;5.30;;;;;;;;;;5285635;28;20021;-73
2023/09/01 07:06:43;;;;;;;15.60;7.20;;;;;;;;;;5283988;28;20279;-73
2023/09/01 07:09:15;;;;;;;11.10;6.93;;;;;;;;;;5285612;28;20020;-71
2023/09/01 07:11:46;;;;;;;10.68;6.07;;;;;;;;;;5284035;28;20400;-72
2023/09/01 07:14:17;;;;;;;6.30;5.55;;;;;;;;;;5284513;28;20044;-77
2023/09/01 07:16:49;;;;;;;9.70;6.85;;;;;;;;;;5284269;28;20109;-75
2023/09/01 07:19:20;;;;;;;6.43;5.22;;;;;;;;;;5285044;28;20036;-74
2023/09/01 07:21:51;;;;;;;8.82;6.20;;;;;;;;;;5283867;28;20464;-74
2023/09/01 07:24:22;;;;;;;9.02;6.03;;;;;;;;;;5284812;28;20028;-74
2023/09/01 07:26:53;;;;;;;8.53;6.13;;;;;;;;;;5282427;28;20021;-74
2023/09/01 07:29:25;;;;;;;9.60;6.20;;;;;;;;;;5281877;28;20258;-72
2023/09/01 07:31:56;;;;;;;7.00;5.85;;;;;;;;;;5282669;28;20033;-73
2023/09/01 07:34:27;;;;;;;10.40;6.50;;;;;;;;;;5281450;28;20554;-73
2023/09/01 07:36:58;;;;;;;8.73;6.38;;;;;;;;;;5283099;28;20447;-73
2023/09/01 07:39:29;;;;;;;10.10;5.90;;;;;;;;;;5282399;28;20021;-74
2023/09/01 07:42:01;;;;;;;7.90;6.03;;;;;;;;;;5283954;28;20024;-74
2023/09/01 07:44:32;;;;;;;7.68;6.00;;;;;;;;;;5284148;28;20398;-74
2023/09/01 07:47:03;;;;;;;6.95;6.18;;;;;;;;;;5284999;28;20442;-74
2023/09/01 07:49:34;;;;;;;8.38;6.13;;;;;;;;;;5283402;28;20028;-74
2023/09/01 07:52:06;;;;;;;7.70;5.67;;;;;;;;;;5284767;28;20032;-74
2023/09/01 07:54:37;;;;;;;7.50;6.22;;;;;;;;;;5283964;28;20372;-74
2023/09/01 07:57:08;;;;;;;6.15;5.53;;;;;;;;;;5283910;28;20024;-74
2023/09/01 07:59:39;;;;;;;6.80;6.07;;;;;;;;;;5283152;28;20540;-75
2023/09/01 08:02:10;;;;;;;6.82;6.13;;;;;;;;;;5284699;28;20046;-74
2023/09/01 08:04:42;;;;;;;6.27;5.67;;;;;;;;;;5283171;28;20539;-75
2023/09/01 08:07:13;;;;;;;8.75;6.07;;;;;;;;;;5284324;28;20368;-75
2023/09/01 08:09:44;;;;;;;7.05;6.35;;;;;;;;;;5283314;28;20052;-75
2023/09/01 08:12:15;;;;;;;9.45;7.32;;;;;;;;;;5284362;28;20178;-76
2023/09/01 08:14:47;;;;;;;8.50;7.05;;;;;;;;;;5283788;28;20032;-75
2023/09/01 08:17:18;;;;;;;8.00;6.72;;;;;;;;;;5283592;28;20020;-75
2023/09/01 08:19:49;;;;;;;6.75;6.05;;;;;;;;;;5283632;28;20020;-75
2023/09/01 08:22:20;;;;;;;8.80;5.90;;;;;;;;;;5284380;28;20090;-75
2023/09/01 08:24:52;;;;;;;8.73;5.97;;;;;;;;;;5282858;28;20046;-75
2023/09/01 08:27:25;;;;;;;6.30;5.70;;;;;;;;;;5284184;28;20025;-75
2023/09/01 08:29:56;;;;;;;7.22;5.82;;;;;;;;;;5283546;28;20266;-75
2023/09/01 08:32:28;;;;;;;5.78;5.28;;;;;;;;;;5282675;28;20100;-75
2023/09/01 08:35:00;;;;;;;7.13;5.60;;;;;;;;;;5283610;28;20047;-75
2023/09/01 08:37:31;;;;;;;6.38;5.28;;;;;;;;;;5282485;28;20541;-75
2023/09/01 08:40:05;;;;;;;5.95;5.35;;;;;;;;;;5283922;28;20028;-74
2023/09/01 08:42:40;;;;;;;6.25;5.72;;;;;;;;;;5282911;28;20024;-74
2023/09/01 08:45:12;;;;;;;5.63;5.07;;;;;;;;;;5282747;28;20031;-74
2023/09/01 08:47:45;;;;;;;6.22;5.63;;;;;;;;;;5283051;28;20435;-75
2023/09/01 08:50:17;;;;;;;6.65;6.05;;;;;;;;;;5283651;28;20074;-73
2023/09/01 08:52:48;;;;;;;6.13;5.50;;;;;;;;;;5282064;28;20067;-73
2023/09/01 08:55:19;;;;;;;6.40;5.72;;;;;;;;;;5283368;28;20475;-73
2023/09/01 08:57:51;;;;;;;5.90;5.32;;;;;;;;;;5282697;28;20019;-73
2023/09/01 09:00:22;;;;;;;5.50;4.95;;;;;;;;;;5282752;28;20047;-73
2023/09/01 09:02:54;;;;;;;5.50;5.00;;;;;;;;;;5282468;28;20052;-73
2023/09/01 09:05:26;;;;;;;6.07;5.57;;;;;;;;;;5282920;28;20019;-73
2023/09/01 09:08:03;;;;;;;6.80;6.18;;;;;;;;;;5281810;28;20056;-74
2023/09/01 09:10:35;;;;;;;6.63;5.95;;;;;;;;;;5282519;28;20459;-74
2023/09/01 09:13:25;;;;;;;6.88;6.28;;;;;;;;;;5282223;28;20082;-73
2023/09/01 09:16:09;;;;;;;6.18;5.57;;;;;;;;;;5282753;28;20379;-74
2023/09/01 09:18:45;;;;;;;6.65;6.05;;;;;;;;;;5282472;28;20143;-74
2023/09/01 09:21:23;;;;;;;6.00;5.57;;;;;;;;;;5282297;28;20020;-75
2023/09/01 09:23:56;;;;;;;6.50;5.40;;;;;;;;;;5282693;28;20091;-74
2023/09/01 09:26:27;;;;;;;9.57;5.93;;;;;;;;;;5282400;28;20099;-74
2023/09/01 09:29:06;;;;;;;6.72;5.57;;;;;;;;;;5281849;28;20439;-74
2023/09/01 09:31:39;;;;;;;5.38;4.97;;;;;;;;;;5282010;28;20024;-74
2023/09/01 09:34:12;;;;;;;5.45;4.85;;;;;;;;;;5282011;28;20052;-74
2023/09/01 09:36:44;;;;;;;5.43;4.93;;;;;;;;;;5281918;28;20501;-74
2023/09/01 09:39:25;;;;;;;4.20;3.55;;;;;;;;;;5282411;28;20025;-74
2023/09/01 09:41:56;;;;;;;4.30;3.80;;;;;;;;;;5281574;28;20024;-74
2023/09/01 09:44:31;;;;;;;4.18;3.72;;;;;;;;;;5281900;28;20020;-75
2023/09/01 09:47:09;;;;;;;4.22;3.35;;;;;;;;;;5282260;28;20100;-74
2023/09/01 09:49:41;;;;;;;;;;;;;;;;;;5281311;28;20445;-74
2023/09/01 09:52:13;;;;;;;3.63;2.55;;;;;;;;;;5282367;28;19995;-75
2023/09/01 09:54:47;;;;;;;2.55;2.00;;;;;;;;;;5281600;28;20040;-75
2023/09/01 09:57:20;;;;;;;2.45;2.25;;;;;;;;;;5281885;28;20017;-75
2023/09/01 09:59:52;;;;;;;2.47;2.28;;;;;;;;;;5281560;28;20085;-74
2023/09/01 10:02:25;;;;;;;2.77;2.57;;;;;;;;;;5281196;28;20420;-74
2023/09/01 10:04:57;;;;;;;3.05;2.20;;;;;;;;;;5281771;28;20293;-74
2023/09/01 10:07:29;;;;;;;2.83;2.63;;;;;;;;;;5281686;28;20076;-75
2023/09/01 10:10:02;;;;;;;3.10;2.30;;;;;;;;;;5281314;28;20027;-75
2023/09/01 10:12:33;;;;;;;2.85;2.65;;;;;;;;;;5281227;28;20020;-75
2023/09/01 10:15:05;;;;;;;3.20;2.60;;;;;;;;;;5282290;28;20468;-74
2023/09/01 10:17:37;;;;;;;2.63;2.42;;;;;;;;;;5280419;28;20017;-74
2023/09/01 10:20:09;;;;;;;2.35;1.92;;;;;;;;;;5281948;28;20051;-75
2023/09/01 10:22:40;;;;;;;2.65;1.85;;;;;;;;;;5280427;28;20012;-75
2023/09/01 10:25:15;;;;;;;2.03;1.80;;;;;;;;;;5281332;28;20071;-75
2023/09/01 10:28:07;;;;;;;3.58;1.80;;;;;;;;;;5281258;28;20023;-75
2023/09/01 10:30:39;;;;;;;3.97;1.48;;;;;;;;;;5280069;28;20021;-75
2023/09/01 10:33:10;;;;;;;1.95;1.58;;;;;;;;;;5281682;28;20036;-76
2023/09/01 10:35:50;;;;;;;1.70;1.30;;;;;;;;;;5281442;28;20376;-76
2023/09/01 10:38:22;;;;;;;1.77;1.38;;;;;;;;;;5280872;28;20273;-75
2023/09/01 10:40:54;;;;;;;2.78;1.17;;;;;;;;;;5281221;28;20371;-75
2023/09/01 10:43:31;;;;;;;1.90;1.10;;;;;;;;;;5281315;28;20027;-75
2023/09/01 10:46:11;;;;;;;2.10;1.25;;;;;;;;;;5281145;28;20464;-75
2023/09/01 10:48:49;;;;;;;1.70;1.10;;;;;;;;;;5281098;28;20020;-75
2023/09/01 10:51:24;;;;;;;1.97;1.30;;;;;;;;;;5281044;28;20040;-75
2023/09/01 10:54:01;;;;;;;6.18;1.10;;;;;;;;;;5281183;28;20028;-75
2023/09/01 10:56:32;;;;;;;1.70;1.33;;;;;;;;;;5281204;28;20020;-75
2023/09/01 10:59:05;;;;;;;2.30;1.00;;;;;;;;;;5280983;28;20070;-74
2023/09/01 11:01:37;;;;;;;1.20;0.70;;;;;;;;;;5281046;28;20020;-75
2023/09/01 11:04:11;;;;;;;2.47;0.85;;;;;;;;;;5281592;28;20378;-75
2023/09/01 11:07:01;;;;;;;1.38;0.75;;;;;;;;;;5279797;28;20084;-75
2023/09/01 11:09:35;;;;;;;0.90;0.57;;;;;;;;;;5280830;28;20078;-75
2023/09/01 11:12:06;;;;;;;1.55;0.70;;;;;;;;;;5281650;28;20094;-75
2023/09/01 11:14:38;;;;;;;1.13;0.70;;;;;;;;;;5280033;28;20466;-75
2023/09/01 11:17:10;;;;;;;2.05;0.88;;;;;;;;;;5281439;28;20096;-75
2023/09/01 11:19:47;;;;;;;1.00;0.60;;;;;;;;;;5280108;28;20415;-74
2023/09/01 11:22:19;;;;;;;1.10;0.50;;;;;;;;;;5281584;28;20346;-74
2023/09/01 11:24:51;;;;;;;1.05;0.65;;;;;;;;;;5280515;28;20044;-75
2023/09/01 11:27:22;;;;;;;1.10;0.55;;;;;;;;;;5280327;28;20095;-75
2023/09/01 11:29:54;;;;;;;0.73;0.50;;;;;;;;;;5280426;28;20023;-74
2023/09/01 11:32:26;;;;;;;0.90;0.50;;;;;;;;;;5280970;28;20569;-74
2023/09/01 11:34:57;;;;;;;0.82;0.50;;;;;;;;;;5283593;28;20032;-74
2023/09/01 11:37:39;;;;;;;1.77;0.57;;;;;;;;;;5284583;28;20033;-75
2023/09/01 11:40:12;;;;;;;1.13;0.50;;;;;;;;;;5285070;28;20023;-74
2023/09/01 11:42:44;;;;;;;2.33;0.47;;;;;;;;;;5283518;28;20016;-74
2023/09/01 11:45:15;;;;;;;0.52;0.30;;;;;;;;;;5284609;28;20048;-74
2023/09/01 11:47:55;;;;;;;0.50;0.30;;;;;;;;;;5283283;28;20454;-74
2023/09/01 11:50:27;;;;;;;3.65;0.77;;;;;;;;;;5284113;28;20348;-74
2023/09/01 11:52:58;;;;;;;0.95;0.43;;;;;;;;;;5284230;28;20028;-74
2023/09/01 11:55:33;;;;;;;0.80;0.45;;;;;;;;;;5283451;28;20020;-74
2023/09/01 11:58:04;;;;;;;0.50;0.20;;;;;;;;;;5284623;28;20109;-74
2023/09/01 12:00:36;;;;;;;1.52;0.30;;;;;;;;;;5283690;28;20096;-74
2023/09/01 12:03:08;;;;;;;0.60;0.40;;;;;;;;;;5283687;28;20459;-74
2023/09/01 12:05:40;;;;;;;0.70;0.50;;;;;;;;;;5283531;28;20061;-74
2023/09/01 12:08:11;;;;;;;0.60;0.40;;;;;;;;;;5283869;28;20457;-74
2023/09/01 12:10:42;;;;;;;1.00;0.40;;;;;;;;;;5282551;28;20538;-73
2023/09/01 12:13:13;;;;;;;1.63;0.40;;;;;;;;;;5283804;28;20066;-74
2023/09/01 12:15:54;;;;;;;1.02;0.50;;;;;;;;;;5282900;28;20745;-73
2023/09/01 12:18:32;;;;;;;1.17;0.52;;;;;;;;;;5283755;28;20024;-73
2023/09/01 12:21:05;;;;;;;1.45;0.50;;;;;;;;;;5283909;28;20414;-74
2023/09/01 12:23:37;;;;;;;0.88;0.50;;;;;;;;;;5282448;28;20502;-73
2023/09/01 12:26:09;;;;;;;0.57;0.45;;;;;;;;;;5284184;28;20468;-73
2023/09/01 12:28:41;;;;;;;1.65;0.47;;;;;;;;;;5283083;28;20031;-73
2023/09/01 12:31:14;;;;;;;0.70;0.40;;;;;;;;;;5282831;28;20369;-74
2023/09/01 12:33:45;;;;;;;0.60;0.40;;;;;;;;;;5283227;28;20386;-73
2023/09/01 12:36:16;;;;;;;1.80;0.50;;;;;;;;;;5283678;28;20021;-73
2023/09/01 12:38:48;;;;;;;0.95;0.40;;;;;;;;;;5282525;28;20028;-74
2023/09/01 12:41:19;;;;;;;0.77;0.40;;;;;;;;;;5283662;28;20013;-73
2023/09/01 12:43:50;;;;;;;0.50;0.40;;;;;;;;;;5282101;28;20290;-73
2023/09/01 12:46:21;;;;;;;0.50;0.40;;;;;;;;;;5282615;28;20591;-73
2023/09/01 12:48:52;;;;;;;0.50;0.40;;;;;;;;;;5282385;28;20054;-73
2023/09/01 12:51:24;;;;;;;0.50;0.40;;;;;;;;;;5282272;28;20603;-73
2023/09/01 12:53:55;;;;;;;0.60;0.43;;;;;;;;;;5282660;28;20299;-73
2023/09/01 12:56:26;;;;;;;0.70;0.50;;;;;;;;;;5282586;28;20262;-73
2023/09/01 12:58:57;;;;;;;0.70;0.50;;;;;;;;;;5282081;28;20690;-73
2023/09/01 13:01:29;;;;;;;1.47;0.50;;;;;;;;;;5282854;28;20017;-73
2023/09/01 13:04:00;;;;;;;1.33;0.70;;;;;;;;;;5283098;28;20271;-73
2023/09/01 13:06:32;;;;;;;1.57;0.73;;;;;;;;;;5281622;28;20302;-73
2023/09/01 13:09:03;;;;;;;2.35;0.65;;;;;;;;;;5282916;28;20286;-73
2023/09/01 13:11:34;;;;;;;0.90;0.65;;;;;;;;;;5281991;28;20013;-74
2023/09/01 13:14:06;;;;;;;0.80;0.60;;;;;;;;;;5281883;28;20024;-72
2023/09/01 13:16:37;;;;;;;1.17;0.67;;;;;;;;;;5282485;28;20028;-73
2023/09/01 13:19:08;;;;;;;2.03;0.60;;;;;;;;;;5282151;28;20278;-73
2023/09/01 13:21:39;;;;;;;2.83;0.70;;;;;;;;;;5281902;28;20131;-73
2023/09/01 13:24:10;;;;;;;1.48;0.70;;;;;;;;;;5282454;28;20605;-73
2023/09/01 13:26:42;;;;;;;1.20;0.60;;;;;;;;;;5280953;28;20031;-72
2023/09/01 13:29:13;;;;;;;1.17;0.53;;;;;;;;;;5282602;28;20278;-72
2023/09/01 13:31:44;;;;;;;0.50;0.40;;;;;;;;;;5282040;28;20815;-73
2023/09/01 13:34:15;;;;;;;0.60;0.40;;;;;;;;;;5281704;28;20107;-73
2023/09/01 13:36:46;;;;;;;1.20;0.50;;;;;;;;;;5281811;28;20267;-74
2023/09/01 13:39:18;;;;;;;0.90;0.50;;;;;;;;;;5282771;28;20271;-73
2023/09/01 13:41:49;;;;;;;0.60;0.50;;;;;;;;;;5280980;28;20278;-73
2023/09/01 13:44:20;;;;;;;0.60;0.50;;;;;;;;;;5282514;28;20012;-74
2023/09/01 13:46:51;;;;;;;0.80;0.50;;;;;;;;;;5281648;28;20028;-73
2023/09/01 13:49:22;;;;;;;1.13;0.47;;;;;;;;;;5281660;28;20294;-72
2023/09/01 13:51:54;;;;;;;0.90;0.40;;;;;;;;;;5281856;28;20093;-73
2023/09/01 13:54:25;;;;;;;0.30;0.30;;;;;;;;;;5281301;28;20033;-74
2023/09/01 13:56:56;;;;;;;0.70;0.50;;;;;;;;;;5277097;28;20275;-75
2023/09/01 13:59:27;;;;;;;1.00;0.47;;;;;;;;;;5281688;28;20275;-74
2023/09/01 14:01:59;;;;;;;0.82;0.55;;;;;;;;;;5280634;28;20730;-74
2023/09/01 14:04:30;;;;;;;1.75;0.47;;;;;;;;;;5281757;28;20053;-75
2023/09/01 14:07:02;;;;;;;0.70;0.60;;;;;;;;;;5281841;28;20131;-76
2023/09/01 14:09:33;;;;;;;1.27;0.60;;;;;;;;;;5280741;28;20008;-76
2023/09/01 14:12:04;;;;;;;1.02;0.57;;;;;;;;;;5281706;28;20099;-76
2023/09/01 14:14:36;;;;;;;1.02;0.60;;;;;;;;;;5281276;28;20497;-76
2023/09/01 14:17:07;;;;;;;2.30;0.50;;;;;;;;;;5281703;28;20472;-76
2023/09/01 14:19:38;;;;;;;1.27;0.50;;;;;;;;;;5281680;28;20270;-75
2023/09/01 14:22:09;;;;;;;1.02;0.40;;;;;;;;;;5281266;28;20017;-75
2023/09/01 14:24:40;;;;;;;0.83;0.60;;;;;;;;;;5281231;28;20059;-74
2023/09/01 14:27:12;;;;;;;1.50;0.45;;;;;;;;;;5281179;28;20270;-74
2023/09/01 14:29:45;;;;;;;0.93;0.40;;;;;;;;;;5280599;28;20017;-74
2023/09/01 14:32:17;;;;;;;1.10;0.60;;;;;;;;;;5282121;28;20111;-74
2023/09/01 14:34:48;;;;;;;0.75;0.50;;;;;;;;;;5279983;28;21007;-74
2023/09/01 14:37:19;;;;;;;1.17;0.80;;;;;;;;;;5281231;28;20103;-74
2023/09/01 14:39:50;;;;;;;1.10;0.80;;;;;;;;;;5281432;28;20776;-74
2023/09/01 14:42:21;;;;;;;1.23;0.80;;;;;;;;;;5282005;28;20023;-74
2023/09/01 14:44:53;;;;;;;1.10;0.70;;;;;;;;;;5280618;28;20358;-74
2023/09/01 14:47:24;;;;;;;1.38;0.82;;;;;;;;;;5281382;28;20274;-74
2023/09/01 14:49:55;;;;;;;2.10;1.00;;;;;;;;;;5281177;28;20055;-74
2023/09/01 14:52:26;;;;;;;1.60;1.00;;;;;;;;;;5280771;28;20544;-74
2023/09/01 14:54:57;;;;;;;1.70;1.60;;;;;;;;;;5281466;28;20029;-73
2023/09/01 14:57:29;;;;;;;1.67;1.58;;;;;;;;;;5280733;28;20744;-74
2023/09/01 15:00:00;;;;;;;2.95;1.50;;;;;;;;;;5281393;28;20112;-74
2023/09/01 15:02:31;;;;;;;1.60;1.50;;;;;;;;;;5281133;28;20073;-73
2023/09/01 15:05:03;;;;;;;2.22;0.90;;;;;;;;;;5281084;28;20145;-74
2023/09/01 15:07:34;;;;;;;3.10;1.20;;;;;;;;;;5279490;28;20049;-73
2023/09/01 15:10:05;;;;;;;1.00;0.73;;;;;;;;;;5285410;28;20099;-74
2023/09/01 15:12:37;;;;;;;1.10;0.80;;;;;;;;;;5284122;28;20051;-73